createdAt,value
2019-03-19T00:01:29.326Z,1.62
2019-03-19T00:04:02.661Z,1.46
2019-03-19T00:06:36.006Z,1.48
2019-03-19T00:09:09.433Z,1.43
2019-03-19T00:11:42.866Z,1.33
2019-03-19T00:14:16.187Z,1.32
2019-03-19T00:16:49.540Z,1.20
2019-03-19T00:19:22.970Z,1.20
2019-03-19T00:21:56.341Z,1.09
2019-03-19T00:24:29.693Z,1.00
2019-03-19T00:27:03.183Z,0.96
2019-03-19T00:29:36.550Z,1.06
2019-03-19T00:32:10.011Z,1.42
2019-03-19T00:34:43.359Z,1.53
2019-03-19T00:37:16.739Z,1.48
2019-03-19T00:39:50.076Z,1.65
2019-03-19T00:42:23.500Z,1.66
2019-03-19T00:44:56.933Z,1.49
2019-03-19T00:47:30.305Z,1.42
2019-03-19T00:50:06.185Z,1.35
2019-03-19T00:52:39.541Z,1.33
2019-03-19T00:55:12.992Z,1.25
2019-03-19T00:57:46.322Z,1.24
2019-03-19T01:00:20.954Z,1.26
2019-03-19T01:02:54.332Z,1.38
2019-03-19T01:05:27.746Z,1.41
2019-03-19T01:08:01.258Z,1.32
2019-03-19T01:10:34.622Z,1.16
2019-03-19T01:13:08.153Z,1.14
2019-03-19T01:15:41.613Z,1.11
2019-03-19T01:18:14.978Z,1.05
2019-03-19T01:20:48.381Z,1.05
2019-03-19T01:23:21.823Z,0.94
2019-03-19T01:25:55.971Z,0.76
2019-03-19T01:28:29.524Z,0.64
2019-03-19T01:31:02.894Z,0.85
2019-03-19T01:33:36.243Z,0.89
2019-03-19T01:36:09.648Z,0.79
2019-03-19T01:38:43.013Z,0.75
2019-03-19T01:41:16.351Z,0.62
2019-03-19T01:43:49.816Z,0.54
2019-03-19T01:46:23.236Z,0.42
2019-03-19T01:48:56.681Z,0.38
2019-03-19T01:51:30.031Z,0.33
2019-03-19T01:54:03.480Z,0.31
2019-03-19T01:56:36.822Z,0.29
2019-03-19T01:59:10.193Z,0.15
2019-03-19T02:01:43.540Z,0.05
2019-03-19T02:04:16.895Z,0.05
2019-03-19T02:06:50.240Z,0.14
2019-03-19T02:09:23.765Z,0.10
2019-03-19T02:11:57.208Z,0.18
2019-03-19T02:14:30.687Z,0.03
2019-03-19T02:17:04.155Z,-0.02
2019-03-19T02:19:37.614Z,0.04
2019-03-19T02:22:11.036Z,0.01
2019-03-19T02:24:44.452Z,-0.16
2019-03-19T02:27:17.933Z,-0.27
2019-03-19T02:29:51.661Z,-0.26
2019-03-19T02:32:25.118Z,-0.19
2019-03-19T02:34:58.469Z,-0.11
2019-03-19T02:37:31.839Z,-0.16
2019-03-19T02:40:11.442Z,-0.14
2019-03-19T02:42:44.772Z,-0.07
2019-03-19T02:45:18.227Z,-0.02
2019-03-19T02:47:51.656Z,-0.09
2019-03-19T02:50:25.068Z,0.05
2019-03-19T02:52:58.421Z,0.01
2019-03-19T02:55:31.832Z,-0.11
2019-03-19T02:58:05.336Z,-0.27
2019-03-19T03:00:38.694Z,-0.36
2019-03-19T03:03:12.217Z,-0.47
2019-03-19T03:05:45.618Z,-0.55
2019-03-19T03:08:19.082Z,-0.44
2019-03-19T03:10:52.525Z,-0.38
2019-03-19T03:13:25.952Z,-0.50
2019-03-19T03:15:59.306Z,-0.51
2019-03-19T03:18:32.693Z,-0.50
2019-03-19T03:21:06.208Z,-0.29
2019-03-19T03:23:39.585Z,-0.21
2019-03-19T03:26:12.938Z,-0.18
2019-03-19T03:28:46.366Z,-0.18
2019-03-19T03:31:19.769Z,-0.33
2019-03-19T03:33:53.163Z,-0.44
2019-03-19T03:36:26.512Z,-0.48
2019-03-19T03:38:59.886Z,-0.47
2019-03-19T03:41:33.350Z,-0.47
2019-03-19T03:44:06.777Z,-0.50
2019-03-19T03:46:40.246Z,-0.57
2019-03-19T03:49:13.679Z,-0.42
2019-03-19T03:51:47.098Z,-0.48
2019-03-19T03:54:20.526Z,-0.39
2019-03-19T03:57:01.927Z,-0.35
2019-03-19T03:59:29.137Z,-0.34
2019-03-19T04:02:02.623Z,-0.35
2019-03-19T04:04:36.111Z,-0.46
2019-03-19T04:07:09.466Z,-0.40
2019-03-19T04:09:42.849Z,-0.41
2019-03-19T04:12:16.241Z,-0.42
2019-03-19T04:14:49.642Z,-0.51
2019-03-19T04:17:23.066Z,-0.69
2019-03-19T04:19:56.455Z,-0.82
2019-03-19T04:22:29.870Z,-0.86
2019-03-19T04:25:03.685Z,-0.67
2019-03-19T04:27:40.123Z,-0.53
2019-03-19T04:30:19.008Z,-0.46
2019-03-19T04:32:52.403Z,-0.43
2019-03-19T04:35:25.837Z,-0.45
2019-03-19T04:37:59.215Z,-0.40
2019-03-19T04:40:32.587Z,-0.35
2019-03-19T04:43:05.934Z,-0.32
2019-03-19T04:45:39.296Z,-0.25
2019-03-19T04:48:12.703Z,-0.21
2019-03-19T04:50:46.072Z,-0.23
2019-03-19T04:53:19.418Z,-0.20
2019-03-19T04:55:52.788Z,-0.20
2019-03-19T04:58:26.129Z,-0.23
2019-03-19T05:00:59.524Z,-0.35
2019-03-19T05:03:32.946Z,-0.38
2019-03-19T05:06:06.376Z,-0.37
2019-03-19T05:08:39.916Z,-0.24
2019-03-19T05:11:13.292Z,-0.11
2019-03-19T05:13:46.661Z,-0.07
2019-03-19T05:16:20.024Z,-0.12
2019-03-19T05:18:53.920Z,-0.06
2019-03-19T05:21:27.283Z,-0.08
2019-03-19T05:24:00.655Z,-0.05
2019-03-19T05:26:34.016Z,0.09
2019-03-19T05:29:07.437Z,0.10
2019-03-19T05:31:40.854Z,0.12
2019-03-19T05:34:14.216Z,0.11
2019-03-19T05:36:47.595Z,0.11
2019-03-19T05:39:21.041Z,0.15
2019-03-19T05:41:54.503Z,0.21
2019-03-19T05:44:27.906Z,0.27
2019-03-19T05:47:01.302Z,0.35
2019-03-19T05:49:34.651Z,0.29
2019-03-19T05:52:08.060Z,0.29
2019-03-19T05:54:41.432Z,0.33
2019-03-19T05:57:14.842Z,0.31
2019-03-19T05:59:48.289Z,0.42
2019-03-19T06:02:21.684Z,0.52
2019-03-19T06:04:55.144Z,0.63
2019-03-19T06:07:28.525Z,0.68
2019-03-19T06:10:01.875Z,0.71
2019-03-19T06:12:35.469Z,0.78
2019-03-19T06:15:11.639Z,0.81
2019-03-19T06:17:44.992Z,0.80
2019-03-19T06:20:19.476Z,0.79
2019-03-19T06:22:52.894Z,0.79
2019-03-19T06:25:26.251Z,0.76
2019-03-19T06:28:00.897Z,0.86
2019-03-19T06:30:34.504Z,0.98
2019-03-19T06:33:07.992Z,1.17
2019-03-19T06:35:41.453Z,2.22
2019-03-19T06:38:14.781Z,3.26
2019-03-19T06:40:48.233Z,2.63
2019-03-19T06:43:21.564Z,2.05
2019-03-19T06:45:54.947Z,1.92
2019-03-19T06:48:28.292Z,2.04
2019-03-19T06:51:01.676Z,2.14
2019-03-19T06:53:35.033Z,2.08
2019-03-19T06:56:08.566Z,1.90
2019-03-19T06:58:42.028Z,2.01
2019-03-19T07:01:17.353Z,2.11
2019-03-19T07:03:50.544Z,2.27
2019-03-19T07:06:24.960Z,2.47
2019-03-19T07:08:58.409Z,2.33
2019-03-19T07:11:31.782Z,2.56
2019-03-19T07:14:05.213Z,2.99
2019-03-19T07:16:38.628Z,3.31
2019-03-19T07:19:11.984Z,3.91
2019-03-19T07:21:45.425Z,4.85
2019-03-19T07:24:18.766Z,5.10
2019-03-19T07:26:52.201Z,5.39
2019-03-19T07:29:25.565Z,5.52
2019-03-19T07:31:59.023Z,5.67
2019-03-19T07:34:32.455Z,5.75
2019-03-19T07:37:05.889Z,6.51
2019-03-19T07:39:39.312Z,6.07
2019-03-19T07:42:12.686Z,6.68
2019-03-19T07:44:46.088Z,6.70
2019-03-19T07:47:19.460Z,6.24
2019-03-19T07:49:52.806Z,7.03
2019-03-19T07:52:26.185Z,6.62
2019-03-19T07:54:59.624Z,6.67
2019-03-19T07:57:33.070Z,7.25
2019-03-19T08:00:09.627Z,6.21
2019-03-19T08:02:42.983Z,4.76
2019-03-19T08:05:16.401Z,4.55
2019-03-19T08:07:49.757Z,4.48
2019-03-19T08:10:23.172Z,4.43
2019-03-19T08:12:56.672Z,4.54
2019-03-19T08:15:30.072Z,4.81
2019-03-19T08:18:03.504Z,4.86
2019-03-19T08:20:36.968Z,4.58
2019-03-19T08:23:10.351Z,4.82
2019-03-19T08:25:43.719Z,4.99
2019-03-19T08:28:17.169Z,5.13
2019-03-19T08:30:50.510Z,5.13
2019-03-19T08:33:23.910Z,5.29
2019-03-19T08:35:57.251Z,5.27
2019-03-19T08:38:30.591Z,5.25
2019-03-19T08:41:03.950Z,5.28
2019-03-19T08:43:37.385Z,5.47
2019-03-19T08:46:10.887Z,5.40
2019-03-19T08:48:44.321Z,5.66
2019-03-19T08:51:17.744Z,6.08
2019-03-19T08:53:51.196Z,5.92
2019-03-19T08:56:24.518Z,5.65
2019-03-19T08:59:05.792Z,6.09
2019-03-19T09:01:34.208Z,6.39
2019-03-19T09:04:07.657Z,6.28
2019-03-19T09:06:41.380Z,6.30
2019-03-19T09:09:14.773Z,6.32
2019-03-19T09:11:48.174Z,6.18
2019-03-19T09:14:21.638Z,6.24
2019-03-19T09:16:55.069Z,6.49
2019-03-19T09:19:28.494Z,6.32
2019-03-19T09:22:01.932Z,6.72
2019-03-19T09:24:35.361Z,6.82
2019-03-19T09:27:08.794Z,7.07
2019-03-19T09:29:42.151Z,7.01
2019-03-19T09:32:15.566Z,7.06
2019-03-19T09:34:48.936Z,6.93
2019-03-19T09:37:22.367Z,7.25
2019-03-19T09:39:55.786Z,7.36
2019-03-19T09:42:29.290Z,7.06
2019-03-19T09:45:02.988Z,6.91
2019-03-19T09:47:38.484Z,7.09
2019-03-19T09:50:19.880Z,7.35
2019-03-19T09:52:53.339Z,7.49
2019-03-19T09:55:26.866Z,7.93
2019-03-19T09:58:00.315Z,7.71
2019-03-19T10:00:33.734Z,7.83
2019-03-19T10:03:07.170Z,7.43
2019-03-19T10:05:40.545Z,7.89
2019-03-19T10:08:13.999Z,8.14
2019-03-19T10:10:47.425Z,7.43
2019-03-19T10:13:20.876Z,7.53
2019-03-19T10:15:54.292Z,7.98
2019-03-19T10:18:27.828Z,7.90
2019-03-19T10:21:01.265Z,7.80
2019-03-19T10:23:34.635Z,7.90
2019-03-19T10:26:07.986Z,7.85
2019-03-19T10:28:41.379Z,8.54
2019-03-19T10:31:14.789Z,8.60
2019-03-19T10:33:48.799Z,8.22
2019-03-19T10:36:22.194Z,8.46
2019-03-19T10:38:55.672Z,8.09
2019-03-19T10:41:29.171Z,7.70
2019-03-19T10:44:02.534Z,7.96
2019-03-19T10:46:35.962Z,8.24
2019-03-19T10:49:09.419Z,8.10
2019-03-19T10:51:42.841Z,8.16
2019-03-19T10:54:19.276Z,8.34
2019-03-19T10:56:52.642Z,8.13
2019-03-19T10:59:26.127Z,8.23
2019-03-19T11:01:59.648Z,8.38
2019-03-19T11:04:33.073Z,8.49
2019-03-19T11:07:06.412Z,7.97
2019-03-19T11:09:39.848Z,7.85
2019-03-19T11:12:13.176Z,8.05
2019-03-19T11:14:46.615Z,8.27
2019-03-19T11:17:19.964Z,8.48
2019-03-19T11:19:53.406Z,8.28
2019-03-19T11:22:26.817Z,8.61
2019-03-19T11:25:02.489Z,8.81
2019-03-19T11:27:36.038Z,9.27
2019-03-19T11:30:15.254Z,9.47
2019-03-19T11:32:48.731Z,9.26
2019-03-19T11:35:22.352Z,9.47
2019-03-19T11:37:56.703Z,9.70
2019-03-19T11:40:30.175Z,9.82
2019-03-19T11:43:03.712Z,8.95
2019-03-19T11:45:37.214Z,9.16
2019-03-19T11:48:10.728Z,8.81
2019-03-19T11:50:44.152Z,9.29
2019-03-19T11:53:17.578Z,8.63
2019-03-19T11:55:51.040Z,8.83
2019-03-19T11:58:24.381Z,8.77
2019-03-19T12:00:59.444Z,8.75
2019-03-19T12:03:32.802Z,9.34
2019-03-19T12:06:06.170Z,9.28
2019-03-19T12:08:39.509Z,9.03
2019-03-19T12:11:12.934Z,9.11
2019-03-19T12:13:46.285Z,9.43
2019-03-19T12:16:19.720Z,9.35
2019-03-19T12:18:53.111Z,9.13
2019-03-19T12:21:26.551Z,9.15
2019-03-19T12:23:59.875Z,9.06
2019-03-19T12:26:33.316Z,9.60
2019-03-19T12:29:06.676Z,9.78
2019-03-19T12:31:40.259Z,9.43
2019-03-19T12:34:13.672Z,9.06
2019-03-19T12:36:47.043Z,8.98
2019-03-19T12:39:20.435Z,8.96
2019-03-19T12:41:53.949Z,9.00
2019-03-19T12:44:30.089Z,9.20
2019-03-19T12:47:03.511Z,9.21
2019-03-19T12:49:36.981Z,9.21
2019-03-19T12:52:10.875Z,9.49
2019-03-19T12:54:44.316Z,9.17
2019-03-19T12:57:19.232Z,9.22
2019-03-19T12:59:52.979Z,9.41
2019-03-19T13:02:26.312Z,9.39
2019-03-19T13:04:59.766Z,9.46
2019-03-19T13:07:33.173Z,9.16
2019-03-19T13:10:09.708Z,9.27
2019-03-19T13:12:43.122Z,9.03
2019-03-19T13:15:19.224Z,9.36
2019-03-19T13:17:52.604Z,9.37
2019-03-19T13:20:26.034Z,8.98
2019-03-19T13:22:59.454Z,9.71
2019-03-19T13:25:32.941Z,9.87
2019-03-19T13:28:06.833Z,10.10
2019-03-19T13:30:45.040Z,9.47
2019-03-19T13:33:15.342Z,9.38
2019-03-19T13:35:48.696Z,9.59
2019-03-19T13:38:22.129Z,9.60
2019-03-19T13:40:55.627Z,9.55
2019-03-19T13:43:28.979Z,10.01
2019-03-19T13:46:02.363Z,10.06
2019-03-19T13:48:35.794Z,10.22
2019-03-19T13:51:09.703Z,9.77
2019-03-19T13:53:43.050Z,9.18
2019-03-19T13:56:16.489Z,9.42
2019-03-19T13:58:49.918Z,9.70
2019-03-19T14:01:23.261Z,9.85
2019-03-19T14:03:56.590Z,9.61
2019-03-19T14:06:29.952Z,9.81
2019-03-19T14:09:04.148Z,10.03
2019-03-19T14:11:37.602Z,9.93
2019-03-19T14:14:11.219Z,10.19
2019-03-19T14:16:44.675Z,9.60
2019-03-19T14:19:18.128Z,10.04
2019-03-19T14:21:51.555Z,9.63
2019-03-19T14:24:24.889Z,10.17
2019-03-19T14:26:58.326Z,10.15
2019-03-19T14:29:32.835Z,9.73
2019-03-19T14:32:06.384Z,10.21
2019-03-19T14:34:39.690Z,10.60
2019-03-19T14:37:13.185Z,10.46
2019-03-19T14:39:46.581Z,10.92
2019-03-19T14:42:19.921Z,10.44
2019-03-19T14:44:53.270Z,10.81
2019-03-19T14:47:28.268Z,11.07
2019-03-19T14:50:01.902Z,10.13
2019-03-19T14:52:35.326Z,10.32
2019-03-19T14:55:09.312Z,10.61
2019-03-19T14:57:42.759Z,10.88
2019-03-19T15:00:22.944Z,10.18
2019-03-19T15:02:56.383Z,10.47
2019-03-19T15:05:29.801Z,10.61
2019-03-19T15:08:03.230Z,10.70
2019-03-19T15:10:36.591Z,10.24
2019-03-19T15:13:10.303Z,10.39
2019-03-19T15:15:43.727Z,10.51
2019-03-19T15:18:17.099Z,10.33
2019-03-19T15:20:52.952Z,10.66
2019-03-19T15:23:25.717Z,10.47
2019-03-19T15:25:59.416Z,10.54
2019-03-19T15:28:32.961Z,10.21
2019-03-19T15:31:06.441Z,10.43
2019-03-19T15:33:39.847Z,10.32
2019-03-19T15:36:13.163Z,10.68
2019-03-19T15:38:46.540Z,10.46
2019-03-19T15:41:19.956Z,10.05
2019-03-19T15:43:53.408Z,10.16
2019-03-19T15:46:26.765Z,10.43
2019-03-19T15:49:00.551Z,10.22
2019-03-19T15:51:34.086Z,10.19
2019-03-19T15:54:07.502Z,10.22
2019-03-19T15:56:40.937Z,10.19
2019-03-19T15:59:14.316Z,10.04
2019-03-19T16:01:47.737Z,10.19
2019-03-19T16:04:21.201Z,10.47
2019-03-19T16:06:54.650Z,10.36
2019-03-19T16:09:28.107Z,10.32
2019-03-19T16:12:01.560Z,10.58
2019-03-19T16:14:35.011Z,10.57
2019-03-19T16:17:08.420Z,10.50
2019-03-19T16:19:41.861Z,10.60
2019-03-19T16:22:15.233Z,11.20
2019-03-19T16:24:48.563Z,11.63
2019-03-19T16:27:22.045Z,12.74
2019-03-19T16:29:55.372Z,13.23
2019-03-19T16:32:28.945Z,12.71
2019-03-19T16:35:02.300Z,12.19
2019-03-19T16:37:35.692Z,12.29
2019-03-19T16:40:19.795Z,11.85
2019-03-19T16:42:53.164Z,11.89
2019-03-19T16:45:26.515Z,11.86
2019-03-19T16:47:59.894Z,11.57
2019-03-19T16:50:33.332Z,11.63
2019-03-19T16:53:06.856Z,11.09
2019-03-19T16:55:40.224Z,11.61
2019-03-19T16:58:13.655Z,11.27
2019-03-19T17:00:47.069Z,10.04
2019-03-19T17:03:27.770Z,9.82
2019-03-19T17:06:01.638Z,9.47
2019-03-19T17:08:35.111Z,9.22
2019-03-19T17:11:10.114Z,9.25
2019-03-19T17:13:43.519Z,9.19
2019-03-19T17:16:16.858Z,9.14
2019-03-19T17:18:50.414Z,9.07
2019-03-19T17:21:23.811Z,8.96
2019-03-19T17:23:57.269Z,8.84
2019-03-19T17:26:30.689Z,8.68
2019-03-19T17:29:04.293Z,8.43
2019-03-19T17:31:37.840Z,8.23
2019-03-19T17:34:11.287Z,8.01
2019-03-19T17:36:44.879Z,7.71
2019-03-19T17:39:18.315Z,7.51
2019-03-19T17:41:51.986Z,7.53
2019-03-19T17:44:25.359Z,7.56
2019-03-19T17:46:58.813Z,7.76
2019-03-19T17:49:32.178Z,7.72
2019-03-19T17:52:05.628Z,7.63
2019-03-19T17:54:38.944Z,7.44
2019-03-19T17:57:12.376Z,7.25
2019-03-19T17:59:45.822Z,6.99
2019-03-19T18:02:23.805Z,6.79
2019-03-19T18:04:54.422Z,6.65
2019-03-19T18:07:27.866Z,6.48
2019-03-19T18:10:01.406Z,6.33
2019-03-19T18:12:34.862Z,6.16
2019-03-19T18:15:11.394Z,6.02
2019-03-19T18:17:44.889Z,6.17
2019-03-19T18:20:18.673Z,6.17
2019-03-19T18:22:52.076Z,6.16
2019-03-19T18:25:25.561Z,6.10
2019-03-19T18:27:59.011Z,6.03
2019-03-19T18:30:35.253Z,5.97
2019-03-19T18:33:08.671Z,5.94
2019-03-19T18:35:42.191Z,5.66
2019-03-19T18:38:18.653Z,5.39
2019-03-19T18:40:52.013Z,5.24
2019-03-19T18:43:25.430Z,5.06
2019-03-19T18:45:58.900Z,4.99
2019-03-19T18:48:32.312Z,5.14
2019-03-19T18:51:05.829Z,5.12
2019-03-19T18:53:39.182Z,5.00
2019-03-19T18:56:12.643Z,4.93
2019-03-19T18:58:46.058Z,4.88
2019-03-19T19:01:19.523Z,4.78
2019-03-19T19:03:52.945Z,4.68
2019-03-19T19:06:26.336Z,4.58
2019-03-19T19:08:59.756Z,4.78
2019-03-19T19:11:33.207Z,4.89
2019-03-19T19:14:06.742Z,4.87
2019-03-19T19:16:40.216Z,4.88
2019-03-19T19:19:13.679Z,4.90
2019-03-19T19:21:47.112Z,4.80
2019-03-19T19:24:20.656Z,4.58
2019-03-19T19:26:54.190Z,4.38
2019-03-19T19:29:27.619Z,4.15
2019-03-19T19:32:01.064Z,4.18
2019-03-19T19:34:34.433Z,4.26
2019-03-19T19:37:07.868Z,4.11
2019-03-19T19:39:41.377Z,4.01
2019-03-19T19:42:14.827Z,4.02
2019-03-19T19:44:48.297Z,3.87
2019-03-19T19:47:21.739Z,3.77
2019-03-19T19:49:55.176Z,3.80
2019-03-19T19:52:29.620Z,3.78
2019-03-19T19:55:03.128Z,3.67
2019-03-19T19:57:36.553Z,3.62
2019-03-19T20:00:21.901Z,3.67
2019-03-19T20:02:55.430Z,3.62
2019-03-19T20:05:28.764Z,3.69
2019-03-19T20:08:02.170Z,3.67
2019-03-19T20:10:35.582Z,3.62
2019-03-19T20:13:09.049Z,3.38
2019-03-19T20:15:42.568Z,3.45
2019-03-19T20:18:15.971Z,3.48
2019-03-19T20:20:49.299Z,3.67
2019-03-19T20:23:22.677Z,3.62
2019-03-19T20:25:56.974Z,3.56
2019-03-19T20:28:30.436Z,3.44
2019-03-19T20:31:03.890Z,3.31
2019-03-19T20:33:37.646Z,3.26
2019-03-19T20:36:11.101Z,3.28
2019-03-19T20:38:44.468Z,3.16
2019-03-19T20:41:17.896Z,3.13
2019-03-19T20:43:51.290Z,3.05
2019-03-19T20:46:24.642Z,3.10
2019-03-19T20:48:58.077Z,3.20
2019-03-19T20:51:31.592Z,3.13
2019-03-19T20:54:05.218Z,3.04
2019-03-19T20:56:38.652Z,2.94
2019-03-19T20:59:12.200Z,2.82
2019-03-19T21:01:45.759Z,2.73
2019-03-19T21:04:19.221Z,2.72
2019-03-19T21:06:52.713Z,2.71
2019-03-19T21:09:26.130Z,2.65
2019-03-19T21:11:59.697Z,2.62
2019-03-19T21:14:33.167Z,2.68
2019-03-19T21:17:06.789Z,2.75
2019-03-19T21:19:40.222Z,2.69
2019-03-19T21:22:13.734Z,2.59
2019-03-19T21:24:47.251Z,2.50
2019-03-19T21:27:20.769Z,2.59
2019-03-19T21:29:54.253Z,2.63
2019-03-19T21:32:27.771Z,2.47
2019-03-19T21:35:01.309Z,2.53
2019-03-19T21:37:34.669Z,2.55
2019-03-19T21:40:15.045Z,2.44
2019-03-19T21:42:48.577Z,2.48
2019-03-19T21:45:22.632Z,2.35
2019-03-19T21:47:56.085Z,2.19
2019-03-19T21:50:29.492Z,2.09
2019-03-19T21:53:03.078Z,2.13
2019-03-19T21:55:36.627Z,2.15
2019-03-19T21:58:09.998Z,2.08
2019-03-19T22:00:43.421Z,2.11
2019-03-19T22:03:16.918Z,2.10
2019-03-19T22:05:50.340Z,2.03
2019-03-19T22:08:23.865Z,1.91
2019-03-19T22:10:57.285Z,1.86
2019-03-19T22:13:30.779Z,1.89
2019-03-19T22:16:04.157Z,1.82
2019-03-19T22:18:37.615Z,1.83
2019-03-19T22:21:11.086Z,1.81
2019-03-19T22:23:44.520Z,1.75
2019-03-19T22:26:17.884Z,1.77
2019-03-19T22:28:51.251Z,1.75
2019-03-19T22:31:24.709Z,1.69
2019-03-19T22:33:58.124Z,1.54
2019-03-19T22:36:31.571Z,1.45
2019-03-19T22:39:07.296Z,1.37
2019-03-19T22:41:40.632Z,1.26
2019-03-19T22:44:14.040Z,1.25
2019-03-19T22:46:47.478Z,1.27
2019-03-19T22:49:20.772Z,1.26
2019-03-19T22:51:54.189Z,1.27
2019-03-19T22:54:27.649Z,1.16
2019-03-19T22:57:01.204Z,1.06
2019-03-19T22:59:34.580Z,1.05
2019-03-19T23:02:08.040Z,1.03
2019-03-19T23:04:41.482Z,0.91
2019-03-19T23:07:14.929Z,0.79
2019-03-19T23:09:48.348Z,0.81
2019-03-19T23:12:21.712Z,0.76
2019-03-19T23:14:55.125Z,0.75
2019-03-19T23:17:28.626Z,0.80
2019-03-19T23:20:02.173Z,0.89
2019-03-19T23:22:35.630Z,0.94
2019-03-19T23:25:09.431Z,0.96
2019-03-19T23:27:42.992Z,0.92
2019-03-19T23:30:21.474Z,0.84
2019-03-19T23:32:55.010Z,0.77
2019-03-19T23:35:28.380Z,0.73
2019-03-19T23:38:01.846Z,0.69
2019-03-19T23:40:35.266Z,0.64
2019-03-19T23:43:08.619Z,0.64
2019-03-19T23:45:42.048Z,0.61
2019-03-19T23:48:15.562Z,0.44
2019-03-19T23:50:49.042Z,0.51
2019-03-19T23:53:22.483Z,0.44
2019-03-19T23:55:55.895Z,0.51
2019-03-19T23:58:29.254Z,0.56
